Time;durP1;ratioP1;P1;durP2;ratioP2;P2;SDS_P1;SDS_P2;PMS_P1;PMS_P2;Temp;Humidity;BMP_temperature;BMP_pressure;BME280_temperature;BME280_humidity;BME280_pressure;Samples;Min_cycle;Max_cycle;Signal;HPM_P1;HPM_P2
2021/06/05 00:00:47;;;;;;;94.30;58.33;;;;;;;17.51;100.00;101917.13;3537771;40;20060;-66
2021/06/05 00:03:14;;;;;;;91.85;60.85;;;;;;;17.52;100.00;101935.19;3543792;40;20071;-66
2021/06/05 00:05:43;;;;;;;91.32;57.78;;;;;;;17.45;100.00;101925.94;3538817;40;20053;-66
2021/06/05 00:08:10;;;;;;;83.35;54.72;;;;;;;17.41;100.00;101926.41;3541016;40;20064;-66
2021/06/05 00:10:48;;;;;;;91.43;57.10;;;;;;;17.42;100.00;101923.53;3543115;40;20050;-66
2021/06/05 00:13:18;;;;;;;97.95;58.75;;;;;;;17.27;100.00;101925.94;3548013;40;20054;-66
2021/06/05 00:15:45;;;;;;;93.20;58.00;;;;;;;17.23;100.00;101923.69;3544692;40;20042;-67
2021/06/05 02:46:24;;;;;;;92.25;47.10;;;;;;;16.58;100.00;101898.25;3253770;40;20450;-67
2021/06/05 02:48:52;;;;;;;88.57;46.88;;;;;;;16.49;100.00;101903.72;3576713;40;20072;-68
2021/06/05 02:51:21;;;;;;;93.53;46.08;;;;;;;16.54;100.00;101906.84;3576515;40;20567;-68
2021/06/05 02:53:47;;;;;;;92.32;46.30;;;;;;;16.53;100.00;101905.97;3576435;40;20061;-68
2021/06/05 02:56:13;;;;;;;92.55;45.63;;;;;;;16.47;100.00;101906.59;3576803;40;20068;-68
2021/06/05 02:58:40;;;;;;;93.25;45.63;;;;;;;16.51;100.00;101897.13;3577028;40;20198;-68
2021/06/05 03:01:07;;;;;;;76.13;41.35;;;;;;;16.50;100.00;101895.41;3568650;40;20089;-68
2021/06/05 03:03:36;;;;;;;75.60;42.85;;;;;;;16.46;100.00;101889.44;3577320;40;20041;-67
2021/06/05 03:06:03;;;;;;;68.93;39.67;;;;;;;16.50;100.00;101894.56;3579129;39;20423;-67
2021/06/05 03:08:33;;;;;;;68.38;40.97;;;;;;;16.52;100.00;101900.69;3577370;39;20076;-67
2021/06/05 03:10:59;;;;;;;60.63;35.97;;;;;;;16.66;100.00;101893.94;3578068;39;20056;-67
2021/06/05 03:13:26;;;;;;;69.65;39.47;;;;;;;16.50;100.00;101891.84;3579389;39;20052;-66
2021/06/05 03:15:53;;;;;;;71.85;41.38;;;;;;;16.46;100.00;101899.47;3577182;39;20425;-68
2021/06/05 03:18:24;;;;;;;60.25;38.40;;;;;;;16.43;100.00;101906.03;3578315;40;20133;-67
2021/06/05 03:20:54;;;;;;;68.78;39.03;;;;;;;16.49;100.00;101903.72;3576816;40;20068;-66
2021/06/05 03:23:25;;;;;;;70.88;40.13;;;;;;;16.56;100.00;101902.13;3578334;39;20273;-68
2021/06/05 03:25:51;;;;;;;59.13;36.70;;;;;;;16.51;100.00;101890.84;3578977;39;20036;-68
2021/06/05 03:28:19;;;;;;;51.33;34.97;;;;;;;16.47;100.00;101890.28;3576845;39;20060;-68
2021/06/05 03:30:45;;;;;;;43.58;30.17;;;;;;;16.53;100.00;101892.38;3577867;40;20063;-69
2021/06/05 03:33:11;;;;;;;41.00;29.92;;;;;;;16.50;100.00;101889.13;3578503;39;20064;-69
2021/06/05 03:35:38;;;;;;;41.53;30.67;;;;;;;16.57;100.00;101890.25;3578991;39;20331;-69
2021/06/05 03:38:06;;;;;;;43.63;30.63;;;;;;;16.55;100.00;101892.25;3577905;39;20473;-69
2021/06/05 03:40:33;;;;;;;43.13;30.17;;;;;;;16.39;100.00;101876.59;3579104;39;20041;-71
2021/06/05 03:42:59;;;;;;;37.45;28.38;;;;;;;16.45;100.00;101893.16;3578706;39;20051;-70
2021/06/05 03:45:26;;;;;;;35.65;27.60;;;;;;;16.40;100.00;101889.16;3578376;39;20033;-71
2021/06/05 03:47:54;;;;;;;40.55;29.48;;;;;;;16.37;100.00;101893.06;3577733;39;20049;-70
2021/06/05 03:50:24;;;;;;;42.87;29.40;;;;;;;16.40;100.00;101883.72;3578178;39;20053;-70
2021/06/05 03:52:50;;;;;;;37.80;27.73;;;;;;;16.29;100.00;101876.63;3578001;40;20297;-70
2021/06/05 03:55:18;;;;;;;35.25;27.33;;;;;;;16.30;100.00;101875.63;3579108;39;20390;-70
2021/06/05 03:57:44;;;;;;;35.22;26.98;;;;;;;16.34;100.00;101874.34;3579560;40;20055;-70
2021/06/05 04:00:14;;;;;;;32.10;25.13;;;;;;;16.38;100.00;101881.16;3578419;39;20061;-69
2021/06/05 04:02:40;;;;;;;29.15;24.80;;;;;;;16.32;100.00;101875.47;3578039;40;20298;-70
2021/06/05 04:05:08;;;;;;;31.08;24.52;;;;;;;16.34;100.00;101877.06;3578534;39;20369;-69
2021/06/05 04:07:34;;;;;;;28.95;23.70;;;;;;;16.36;100.00;101875.03;3578201;39;20044;-69
2021/06/05 04:10:00;;;;;;;30.13;24.65;;;;;;;16.37;100.00;101875.88;3576772;39;20047;-68
2021/06/05 04:12:27;;;;;;;30.58;24.40;;;;;;;16.53;100.00;101873.38;3577828;39;20056;-68
2021/06/05 04:14:53;;;;;;;28.08;23.70;;;;;;;16.57;100.00;101874.78;3578365;39;20064;-68
2021/06/05 04:17:19;;;;;;;29.27;23.35;;;;;;;16.57;100.00;101884.81;3578319;39;20074;-68
2021/06/05 04:19:45;;;;;;;30.85;24.40;;;;;;;16.54;100.00;101875.09;3578167;39;20044;-68
2021/06/05 04:22:12;;;;;;;27.67;22.42;;;;;;;16.59;100.00;101878.22;3577219;39;20060;-68
2021/06/05 04:24:38;;;;;;;28.70;22.90;;;;;;;16.64;100.00;101875.91;3578809;40;20048;-69
2021/06/05 04:27:07;;;;;;;22.88;18.70;;;;;;;16.62;100.00;101874.31;3577252;39;20423;-69
2021/06/05 04:29:35;;;;;;;20.35;16.50;;;;;;;16.63;100.00;101876.88;3578709;39;20492;-69
2021/06/05 04:32:03;;;;;;;21.02;17.88;;;;;;;16.80;100.00;101880.69;3577259;39;20372;-69
2021/06/05 04:34:29;;;;;;;21.30;18.10;;;;;;;16.85;100.00;101882.94;3577694;39;20292;-67
2021/06/05 04:36:55;;;;;;;19.48;16.30;;;;;;;16.81;100.00;101874.25;3578218;39;20146;-67
2021/06/05 04:39:22;;;;;;;24.05;17.50;;;;;;;16.82;100.00;101884.09;3577142;39;20134;-67
2021/06/05 04:41:48;;;;;;;18.50;16.50;;;;;;;16.92;100.00;101880.50;3577991;39;20056;-68
2021/06/05 04:44:14;;;;;;;17.13;15.02;;;;;;;16.85;100.00;101876.66;3577244;39;20380;-68
2021/06/05 04:46:42;;;;;;;17.02;14.57;;;;;;;16.97;100.00;101875.44;3586080;39;20542;-68
2021/06/05 04:49:08;;;;;;;17.73;15.77;;;;;;;16.90;100.00;101887.94;3586688;40;20056;-68
2021/06/05 04:51:35;;;;;;;16.92;14.90;;;;;;;16.89;100.00;101889.81;3588006;39;20441;-68
2021/06/05 04:54:01;;;;;;;16.65;14.70;;;;;;;16.94;100.00;101894.78;3588746;40;20328;-68
2021/06/05 04:56:34;;;;;;;18.27;15.25;;;;;;;17.00;100.00;101891.44;3587711;39;20086;-68
2021/06/05 04:59:00;;;;;;;17.48;14.90;;;;;;;17.04;100.00;101892.88;3588431;40;20041;-67
2021/06/05 05:01:26;;;;;;;18.48;15.35;;;;;;;17.09;100.00;101890.56;3586659;39;20083;-68
2021/06/05 05:03:53;;;;;;;15.85;12.98;;;;;;;16.87;100.00;101883.69;3588701;39;20526;-67
2021/06/05 05:06:19;;;;;;;15.50;12.43;;;;;;;16.89;100.00;101887.09;3588395;39;20132;-67
2021/06/05 05:11:12;;;;;;;13.43;12.00;;;;;;;17.00;100.00;101891.44;3566286;23;20308;-67
2021/06/05 05:13:38;;;;;;;18.85;15.65;;;;;;;16.93;100.00;101893.06;3578263;39;20367;-67
2021/06/05 05:16:05;;;;;;;18.13;15.20;;;;;;;17.11;100.00;101893.13;3577295;39;20348;-67
2021/06/05 05:18:32;;;;;;;19.88;15.52;;;;;;;17.23;100.00;101893.75;3577338;39;20065;-67
2021/06/05 05:21:00;;;;;;;19.77;15.70;;;;;;;17.32;100.00;101900.97;3577668;40;20134;-67
2021/06/05 05:23:28;;;;;;;20.52;16.80;;;;;;;17.30;100.00;101894.84;3577731;39;20113;-67
2021/06/05 05:25:56;;;;;;;19.63;15.40;;;;;;;17.36;100.00;101899.66;3578711;39;20061;-67
2021/06/05 05:28:22;;;;;;;14.55;12.65;;;;;;;17.32;100.00;101896.38;3577587;39;20356;-67
2021/06/05 05:30:51;;;;;;;15.30;12.63;;;;;;;17.58;100.00;101894.72;3577165;39;20052;-66
2021/06/05 05:33:18;;;;;;;14.25;12.27;;;;;;;17.73;100.00;101895.06;3577438;39;20151;-66
2021/06/05 05:35:44;;;;;;;12.32;11.02;;;;;;;17.80;100.00;101891.53;3577985;39;20140;-66
2021/06/05 05:38:12;;;;;;;14.63;12.02;;;;;;;17.83;100.00;101893.94;3577468;39;20048;-66
2021/06/05 05:40:42;;;;;;;15.23;13.38;;;;;;;17.56;100.00;101903.06;3577805;40;20064;-66
2021/06/05 05:43:08;;;;;;;12.93;11.25;;;;;;;17.66;100.00;101909.28;3578052;40;20319;-66
2021/06/05 05:45:34;;;;;;;13.20;10.43;;;;;;;17.80;100.00;101896.97;3578037;39;20574;-66
2021/06/05 05:48:03;;;;;;;10.75;9.05;;;;;;;17.91;100.00;101900.50;3577152;39;20413;-66
2021/06/05 05:50:32;;;;;;;11.30;9.02;;;;;;;17.99;100.00;101911.44;3576384;40;20338;-65
2021/06/05 05:52:58;;;;;;;10.27;8.23;;;;;;;18.05;100.00;101913.53;3578392;39;20056;-66
2021/06/05 05:55:25;;;;;;;9.45;8.30;;;;;;;17.89;100.00;101907.91;3577567;40;20045;-66
2021/06/05 05:57:52;;;;;;;9.43;8.00;;;;;;;17.81;100.00;101909.56;3577024;40;20045;-67
2021/06/05 06:00:21;;;;;;;12.48;9.73;;;;;;;17.58;100.00;101919.22;3576476;40;20041;-66
2021/06/05 06:02:47;;;;;;;9.95;8.63;;;;;;;17.50;100.00;101918.16;3577390;40;20446;-66
2021/06/05 06:05:13;;;;;;;9.25;8.35;;;;;;;17.63;100.00;101923.19;3577736;40;20315;-66
2021/06/05 06:07:40;;;;;;;11.13;9.25;;;;;;;17.71;100.00;101922.44;3577621;40;20269;-66
2021/06/05 06:10:08;;;;;;;11.02;8.85;;;;;;;17.79;100.00;101927.09;3577443;40;20060;-66
2021/06/05 06:12:36;;;;;;;10.77;8.85;;;;;;;17.73;100.00;101939.47;3577315;39;20161;-65
2021/06/05 06:15:02;;;;;;;9.20;8.18;;;;;;;17.92;100.00;101932.13;3578061;39;20335;-66
2021/06/05 06:17:28;;;;;;;10.27;8.68;;;;;;;18.19;100.00;101942.91;3576998;40;20060;-66
2021/06/05 06:19:54;;;;;;;10.13;7.93;;;;;;;18.46;100.00;101938.31;3577408;39;20064;-66
2021/06/05 06:22:20;;;;;;;10.38;7.70;;;;;;;18.73;100.00;101944.59;3577551;39;20198;-66
2021/06/05 06:24:46;;;;;;;10.05;8.65;;;;;;;18.55;100.00;101945.50;3577041;39;20041;-66
2021/06/05 06:27:12;;;;;;;11.25;8.25;;;;;;;18.48;100.00;101947.19;3578108;39;20053;-64
2021/06/05 06:29:40;;;;;;;12.05;9.13;;;;;;;18.44;100.00;101944.94;3577022;39;20133;-65
2021/06/05 06:32:07;;;;;;;9.65;8.63;;;;;;;18.31;100.00;101946.22;3577902;39;20052;-66
2021/06/05 06:34:34;;;;;;;12.13;9.60;;;;;;;18.36;100.00;101949.31;3577836;39;20391;-66
2021/06/05 06:37:04;;;;;;;11.43;8.82;;;;;;;18.32;100.00;101947.09;3577581;40;20056;-66
2021/06/05 06:39:30;;;;;;;9.40;8.35;;;;;;;18.36;100.00;101953.94;3576187;40;20049;-66
2021/06/05 06:41:56;;;;;;;9.45;8.43;;;;;;;18.34;100.00;101961.41;3577331;39;20045;-66
2021/06/05 06:44:22;;;;;;;11.73;8.68;;;;;;;18.34;100.00;101962.28;3577346;39;20065;-66
2021/06/05 06:46:50;;;;;;;8.35;7.47;;;;;;;18.16;100.00;101959.56;3578369;40;20068;-66
2021/06/05 06:49:19;;;;;;;9.85;8.68;;;;;;;18.07;100.00;101973.31;3576266;39;20125;-66
2021/06/05 06:51:45;;;;;;;10.80;8.53;;;;;;;17.81;100.00;101964.03;3578026;39;20044;-66
2021/06/05 06:54:13;;;;;;;10.07;8.63;;;;;;;17.71;100.00;101971.44;3578137;40;20064;-66
2021/06/05 06:56:39;;;;;;;11.68;8.90;;;;;;;17.69;100.00;101968.00;3576707;40;20061;-66
2021/06/05 06:59:06;;;;;;;9.32;7.90;;;;;;;17.61;100.00;101967.94;3575933;39;20056;-66
2021/06/05 07:01:33;;;;;;;10.02;8.48;;;;;;;17.69;100.00;101966.13;3577136;39;20069;-66
2021/06/05 07:04:00;;;;;;;9.57;8.63;;;;;;;17.78;100.00;101967.06;3578074;39;20045;-66
2021/06/05 07:06:26;;;;;;;10.50;9.05;;;;;;;17.61;100.00;101976.13;3577209;40;20074;-66
2021/06/05 07:08:53;;;;;;;10.32;8.10;;;;;;;17.80;100.00;101967.78;3576423;39;20071;-66
2021/06/05 07:11:28;;;;;;;11.05;9.52;;;;;;;17.75;100.00;101974.69;3577057;39;20089;-66
2021/06/05 07:13:54;;;;;;;12.10;9.77;;;;;;;17.69;100.00;101973.44;3577694;40;20084;-66
2021/06/05 07:16:20;;;;;;;9.80;8.80;;;;;;;17.80;100.00;101981.41;3577452;39;20097;-66
2021/06/05 07:18:48;;;;;;;10.10;8.80;;;;;;;17.86;100.00;101983.47;3576667;39;20063;-66
2021/06/05 07:21:16;;;;;;;11.38;8.98;;;;;;;17.74;100.00;101982.03;3576062;40;20140;-67
2021/06/05 07:23:43;;;;;;;10.55;9.38;;;;;;;17.71;100.00;101985.06;3577820;39;20060;-66
2021/06/05 07:26:12;;;;;;;10.50;9.43;;;;;;;17.56;100.00;101983.88;3575802;40;20836;-66
2021/06/05 07:28:42;;;;;;;12.82;9.48;;;;;;;17.58;100.00;101976.41;3573288;39;20037;-65
2021/06/05 07:31:10;;;;;;;9.43;8.43;;;;;;;17.76;100.00;101980.00;3575069;39;20438;-65
2021/06/05 07:33:36;;;;;;;10.27;9.13;;;;;;;17.74;100.00;101976.56;3577472;39;20049;-65
2021/06/05 07:36:04;;;;;;;9.88;8.55;;;;;;;17.52;100.00;101969.72;3576751;39;20036;-66
2021/06/05 07:38:32;;;;;;;11.40;8.60;;;;;;;17.75;100.00;101969.25;3576255;40;20067;-65
2021/06/05 07:40:59;;;;;;;10.63;9.52;;;;;;;17.68;100.00;101972.59;3576010;40;20057;-66
2021/06/05 07:43:29;;;;;;;10.88;9.70;;;;;;;17.85;100.00;101976.31;3576775;39;20408;-64
2021/06/05 07:45:56;;;;;;;10.43;9.32;;;;;;;17.94;100.00;101971.81;3576611;40;20065;-65
2021/06/05 07:48:23;;;;;;;11.20;9.98;;;;;;;18.05;100.00;101978.91;3575926;40;20061;-65
2021/06/05 07:50:49;;;;;;;10.90;8.85;;;;;;;17.85;100.00;101973.59;3575274;40;20110;-66
2021/06/05 07:53:15;;;;;;;14.45;10.90;;;;;;;17.88;100.00;101980.59;3578845;39;20064;-66
2021/06/05 07:55:43;;;;;;;14.68;10.23;;;;;;;18.06;100.00;101977.88;3579281;39;20400;-66
2021/06/05 07:58:09;;;;;;;10.20;9.10;;;;;;;18.32;100.00;101974.34;3578516;39;20053;-66
2021/06/05 08:00:36;;;;;;;10.30;8.90;;;;;;;18.28;100.00;101978.38;3576663;39;20149;-66
2021/06/05 08:03:02;;;;;;;9.07;8.18;;;;;;;18.36;100.00;101976.56;3577838;39;20051;-64
2021/06/05 08:05:28;;;;;;;10.52;8.77;;;;;;;18.53;100.00;101972.06;3577560;39;20053;-64
2021/06/05 08:07:55;;;;;;;9.25;8.23;;;;;;;18.41;100.00;101977.97;3580316;39;20142;-64
2021/06/05 08:15:49;;;;;;;10.90;9.50;;;;;;;18.08;100.00;101977.72;3623058;22;19936;-69
2021/06/05 08:18:17;;;;;;;13.23;9.82;;;;;;;17.88;100.00;101987.94;3587514;40;20051;-63
2021/06/05 08:20:47;;;;;;;10.93;9.65;;;;;;;18.00;100.00;101976.63;3585424;40;20067;-64
2021/06/05 08:23:15;;;;;;;10.10;9.10;;;;;;;18.37;100.00;101974.69;3587356;40;20103;-64
2021/06/05 08:25:41;;;;;;;10.88;9.38;;;;;;;18.67;100.00;101964.34;3587694;40;20068;-65
2021/06/05 08:28:09;;;;;;;10.30;9.13;;;;;;;19.05;100.00;101970.28;3588315;40;20494;-65
2021/06/05 08:30:39;;;;;;;11.57;10.18;;;;;;;19.02;100.00;101966.03;3585612;40;20060;-64
2021/06/05 08:33:08;;;;;;;14.05;11.32;;;;;;;19.22;100.00;101963.88;3587690;40;20059;-65
2021/06/05 08:35:34;;;;;;;10.70;9.60;;;;;;;19.51;100.00;101968.03;3587241;40;20050;-65
2021/06/05 08:38:01;;;;;;;11.18;9.98;;;;;;;19.58;100.00;101965.47;3587421;40;20041;-64
2021/06/05 08:40:41;;;;;;;12.25;10.30;;;;;;;19.61;100.00;101973.34;3586502;40;20391;-65
2021/06/05 08:43:09;;;;;;;10.40;9.30;;;;;;;19.68;100.00;101970.78;3586693;40;20406;-65
2021/06/05 08:45:35;;;;;;;11.98;9.88;;;;;;;19.03;100.00;101972.34;3586727;40;20052;-65
2021/06/05 08:48:03;;;;;;;10.00;8.55;;;;;;;19.13;100.00;101964.03;3587003;40;20391;-61
2021/06/05 08:50:32;;;;;;;9.23;8.27;;;;;;;19.49;100.00;101967.34;3587401;40;20060;-65
2021/06/05 08:53:07;;;;;;;;;;;;;;;19.76;100.00;101974.38;3587869;40;20076;-65
2021/06/05 08:55:39;;;;;;;9.77;8.40;;;;;;;20.10;100.00;101972.53;3587918;40;19944;-67
2021/06/05 08:58:13;;;;;;;10.13;9.07;;;;;;;19.69;100.00;101972.50;3585905;40;20052;-68
2021/06/05 09:00:43;;;;;;;11.52;8.75;;;;;;;20.15;100.00;101967.41;3584585;40;20446;-64
2021/06/05 09:03:11;;;;;;;11.50;9.45;;;;;;;19.89;100.00;101983.97;3586011;39;20080;-66
2021/06/05 09:05:45;;;;;;;10.45;8.57;;;;;;;19.69;100.00;101977.97;3586148;40;20059;-65
2021/06/05 09:08:18;;;;;;;10.15;8.18;;;;;;;19.59;100.00;101980.84;3584916;40;20049;-66
2021/06/05 09:10:44;;;;;;;11.27;9.15;;;;;;;19.46;100.00;101981.34;3584033;40;20044;-65
2021/06/05 09:13:10;;;;;;;9.45;8.45;;;;;;;19.64;100.00;101985.81;3583878;40;20071;-66
2021/06/05 09:15:36;;;;;;;12.63;8.88;;;;;;;20.12;100.00;101979.53;3587218;40;20150;-67
2021/06/05 09:18:05;;;;;;;12.07;7.35;;;;;;;20.39;100.00;101982.06;3585781;40;20052;-65
2021/06/05 09:20:37;;;;;;;10.18;9.25;;;;;;;19.98;100.00;101987.56;3586462;40;20095;-65
2021/06/05 09:23:24;;;;;;;9.75;8.75;;;;;;;19.71;100.00;101989.56;3587827;40;20048;-66
2021/06/05 09:25:50;;;;;;;9.40;7.97;;;;;;;20.08;100.00;101988.25;3588150;40;20302;-64
2021/06/05 09:28:21;;;;;;;10.43;8.70;;;;;;;19.85;100.00;101990.81;3586878;40;20078;-66
2021/06/05 09:30:48;;;;;;;12.02;9.10;;;;;;;19.77;100.00;101991.63;3587242;40;20916;-65
2021/06/05 09:33:27;;;;;;;9.40;8.40;;;;;;;19.11;100.00;101991.50;3586149;40;20137;-64
2021/06/05 09:36:11;;;;;;;;;;;;;;;19.11;100.00;101990.63;3587624;40;20048;-65
2021/06/05 09:41:17;;;;;;;11.02;8.43;;;;;;;19.63;100.00;102000.50;3663997;22;20602;-66
2021/06/05 09:43:45;;;;;;;9.77;8.48;;;;;;;19.86;100.00;101996.13;3598025;39;20083;-65
2021/06/05 09:46:20;;;;;;;10.10;8.57;;;;;;;19.42;100.00;102002.66;3597990;39;20615;-65
2021/06/05 09:48:49;;;;;;;10.85;9.38;;;;;;;18.89;100.00;102004.69;3598027;39;20056;-65
2021/06/05 09:51:34;;;;;;;10.63;9.18;;;;;;;18.93;100.00;102018.00;3597140;39;20356;-65
2021/06/05 09:54:11;;;;;;;11.52;9.98;;;;;;;19.00;100.00;102017.19;3597855;39;20047;-65
2021/06/05 09:56:39;;;;;;;11.77;10.50;;;;;;;18.69;100.00;102025.84;3597517;39;20047;-65
2021/06/05 09:59:14;;;;;;;10.85;9.65;;;;;;;18.54;100.00;102019.28;3597027;39;20056;-65
2021/06/05 10:01:41;;;;;;;11.15;9.25;;;;;;;18.87;100.00;102016.78;3595726;39;20113;-64
2021/06/05 10:04:17;;;;;;;10.43;9.32;;;;;;;18.79;100.00;102025.75;3594444;39;20054;-67
2021/06/05 10:06:48;;;;;;;14.77;11.13;;;;;;;18.65;100.00;102020.88;3595636;39;20052;-65
2021/06/05 10:09:37;;;;;;;16.90;14.20;;;;;;;18.36;100.00;102030.25;3595363;39;20056;-66
2021/06/05 10:12:07;;;;;;;18.83;13.90;;;;;;;18.25;100.00;102033.22;3594345;39;20078;-65
2021/06/05 10:14:59;;;;;;;21.10;15.15;;;;;;;18.10;100.00;102033.78;3597619;39;20062;-66
2021/06/05 10:17:33;;;;;;;18.90;16.65;;;;;;;18.23;100.00;102024.31;3587127;39;20075;-66
2021/06/05 10:20:08;;;;;;;20.50;17.77;;;;;;;18.19;100.00;102029.25;3598486;39;20047;-66
2021/06/05 10:22:36;;;;;;;23.88;19.08;;;;;;;18.23;100.00;102029.78;3598465;39;20040;-66
2021/06/05 10:25:06;;;;;;;26.48;20.48;;;;;;;17.94;100.00;102030.91;3597560;39;20060;-64
2021/06/05 10:27:36;;;;;;;23.67;20.10;;;;;;;17.82;100.00;102038.44;3597755;39;20347;-67
2021/06/05 10:30:08;;;;;;;22.27;17.67;;;;;;;18.02;100.00;102039.13;3598340;39;20051;-65
2021/06/05 10:32:41;;;;;;;22.30;17.63;;;;;;;17.99;100.00;102040.31;3599030;39;20039;-65
2021/06/05 10:38:22;;;;;;;24.48;18.90;;;;;;;17.91;100.00;102050.28;3605011;22;20454;-65
2021/06/05 10:40:52;;;;;;;24.70;20.50;;;;;;;18.13;100.00;102047.06;3575682;40;20368;-64
2021/06/05 10:43:18;;;;;;;22.52;19.17;;;;;;;18.10;100.00;102052.84;3577218;40;20061;-65
2021/06/05 10:45:48;;;;;;;26.85;20.85;;;;;;;18.02;100.00;102056.34;3574354;40;20112;-65
2021/06/05 10:48:23;;;;;;;29.10;21.90;;;;;;;17.85;100.00;102060.75;3576224;40;20045;-65
2021/06/05 10:50:59;;;;;;;26.65;21.38;;;;;;;17.82;100.00;102058.34;3574339;40;20408;-65
2021/06/05 10:53:30;;;;;;;23.25;19.80;;;;;;;17.76;100.00;102056.22;3577127;40;20403;-63
2021/06/05 10:56:00;;;;;;;24.80;19.95;;;;;;;17.80;100.00;102054.91;3575754;40;20041;-64
2021/06/05 10:58:41;;;;;;;23.75;21.13;;;;;;;17.98;100.00;102048.66;3575710;40;20044;-65
2021/06/05 11:01:10;;;;;;;23.02;19.83;;;;;;;18.25;100.00;102049.56;3573674;40;20436;-64
2021/06/05 11:03:50;;;;;;;23.50;19.80;;;;;;;18.50;100.00;102045.16;3575240;40;20396;-65
2021/06/05 11:06:19;;;;;;;24.48;19.73;;;;;;;18.56;100.00;102047.25;3575130;40;20068;-65
2021/06/05 11:08:51;;;;;;;27.40;21.90;;;;;;;18.48;100.00;102044.47;3576653;40;20053;-64
2021/06/05 11:11:49;;;;;;;27.23;22.20;;;;;;;18.39;100.00;102047.13;3574109;40;20052;-64
2021/06/05 11:14:41;;;;;;;31.92;24.10;;;;;;;18.24;100.00;102059.63;3576078;40;20048;-65
2021/06/05 11:17:21;;;;;;;27.27;22.52;;;;;;;18.32;100.00;102064.28;3574316;40;20739;-65
2021/06/05 11:19:50;;;;;;;31.15;23.33;;;;;;;18.21;100.00;102065.34;3575279;40;20068;-66
2021/06/05 11:22:18;;;;;;;24.92;19.92;;;;;;;18.42;100.00;102056.88;3575789;40;20077;-65
2021/06/05 11:25:06;;;;;;;25.80;22.23;;;;;;;18.38;100.00;102060.91;3576631;40;20431;-65
2021/06/05 11:27:47;;;;;;;31.98;24.05;;;;;;;18.44;100.00;102052.09;3578727;40;20059;-65
2021/06/05 11:30:38;;;;;;;30.38;23.23;;;;;;;18.63;100.00;102047.47;3575016;40;20049;-65
2021/06/05 11:33:07;;;;;;;31.02;24.75;;;;;;;18.55;100.00;102056.41;3577854;40;20329;-65
2021/06/05 11:35:42;;;;;;;30.92;24.80;;;;;;;18.13;100.00;102052.53;3575870;40;20062;-65
2021/06/05 11:38:10;;;;;;;41.13;27.17;;;;;;;18.11;100.00;102054.56;3576811;40;20069;-66
2021/06/05 11:40:56;;;;;;;35.60;24.27;;;;;;;18.16;100.00;102051.38;3575883;40;20115;-65
2021/06/05 11:43:39;;;;;;;33.13;23.92;;;;;;;18.24;100.00;102053.28;3576873;40;20137;-64
2021/06/05 11:46:08;;;;;;;34.53;23.73;;;;;;;18.26;100.00;102054.00;3575949;40;20053;-64
2021/06/05 11:48:45;;;;;;;34.03;24.77;;;;;;;18.04;100.00;102054.31;3577982;40;20056;-64
2021/06/05 11:51:41;;;;;;;34.20;23.92;;;;;;;17.79;100.00;102058.66;3575167;40;20413;-65
2021/06/05 11:54:19;;;;;;;31.95;23.48;;;;;;;18.07;100.00;102058.59;3575651;40;20167;-65
2021/06/05 11:56:51;;;;;;;33.20;23.40;;;;;;;18.43;100.00;102050.38;3577143;40;20542;-64
2021/06/05 11:59:26;;;;;;;34.72;23.65;;;;;;;18.49;100.00;102047.03;3576585;40;20060;-65
2021/06/05 12:01:52;;;;;;;36.67;23.15;;;;;;;18.46;100.00;102050.09;3575599;40;20041;-65
2021/06/05 12:04:21;;;;;;;32.90;20.92;;;;;;;18.73;100.00;102048.22;3576047;40;20057;-66
2021/06/05 12:06:49;;;;;;;34.28;22.65;;;;;;;18.56;100.00;102059.03;3576452;40;20426;-65
2021/06/05 12:09:17;;;;;;;30.60;22.67;;;;;;;18.50;100.00;102064.25;3575622;40;20047;-65
2021/06/05 12:11:55;;;;;;;30.65;20.98;;;;;;;18.67;100.00;102057.03;3575159;40;20339;-64
2021/06/05 12:14:37;;;;;;;32.40;22.33;;;;;;;18.50;100.00;102056.91;3575418;40;20281;-65
2021/06/05 12:17:07;;;;;;;29.25;19.92;;;;;;;17.99;100.00;102062.13;3576957;40;20118;-64
2021/06/05 12:19:35;;;;;;;28.55;19.35;;;;;;;18.17;100.00;102061.25;3576521;40;20354;-64
2021/06/05 12:22:12;;;;;;;26.58;18.35;;;;;;;18.20;100.00;102066.41;3573806;40;20044;-64
2021/06/05 12:24:41;;;;;;;21.75;17.00;;;;;;;18.31;100.00;102070.72;3572810;40;20063;-63
2021/06/05 12:27:08;;;;;;;25.50;18.60;;;;;;;18.01;100.00;102070.13;3573516;40;20037;-65
2021/06/05 12:32:15;;;;;;;25.02;18.27;;;;;;;18.14;100.00;102061.56;3630889;22;20050;-65
2021/06/05 12:34:42;;;;;;;25.08;17.80;;;;;;;18.05;100.00;102068.81;3607195;39;20083;-65
2021/06/05 12:37:19;;;;;;;25.55;19.77;;;;;;;17.89;100.00;102063.16;3606364;39;20051;-64
2021/06/05 12:39:48;;;;;;;25.80;18.48;;;;;;;18.00;100.00;102068.41;3607779;39;20048;-64
2021/06/05 12:42:23;;;;;;;;;;;;;;;17.89;100.00;102068.59;3607994;39;20127;-64
2021/06/05 12:44:50;;;;;;;26.20;19.58;;;;;;;17.82;100.00;102063.78;3608124;39;19952;-64
2021/06/05 12:47:22;;;;;;;24.55;18.05;;;;;;;17.84;100.00;102067.22;3606839;39;20055;-65
2021/06/05 12:49:48;;;;;;;24.52;18.95;;;;;;;17.79;100.00;102065.97;3607084;39;20053;-65
2021/06/05 12:52:27;;;;;;;28.40;19.95;;;;;;;17.86;100.00;102073.34;3608230;39;20042;-65
2021/06/05 12:54:54;;;;;;;23.25;17.67;;;;;;;17.97;100.00;102069.56;3608594;39;20047;-64
2021/06/05 12:57:38;;;;;;;24.80;19.33;;;;;;;17.50;100.00;102073.31;3607043;39;20059;-64
2021/06/05 13:00:20;;;;;;;23.52;19.55;;;;;;;17.60;100.00;102073.25;3606898;39;20147;-64
2021/06/05 13:02:49;;;;;;;26.85;20.50;;;;;;;17.69;100.00;102071.47;3608212;39;20067;-64
2021/06/05 13:05:18;;;;;;;24.38;20.60;;;;;;;17.66;100.00;102077.22;3607126;39;20416;-64
2021/06/05 13:07:45;;;;;;;25.83;19.77;;;;;;;17.52;100.00;102081.34;3607956;39;20087;-64
2021/06/05 13:10:22;;;;;;;30.40;22.65;;;;;;;17.36;100.00;102070.22;3606793;39;20047;-64
2021/06/05 13:12:49;;;;;;;28.85;23.27;;;;;;;17.39;100.00;102076.25;3607213;39;20120;-65
2021/06/05 13:15:29;;;;;;;31.13;23.15;;;;;;;17.32;100.00;102075.97;3607603;39;20371;-65
2021/06/05 13:17:58;;;;;;;28.13;22.15;;;;;;;17.46;100.00;102071.91;3607421;39;20123;-65
2021/06/05 13:20:31;;;;;;;29.90;22.83;;;;;;;17.29;100.00;102070.84;3606972;39;20404;-65
2021/06/05 13:23:29;;;;;;;34.08;23.75;;;;;;;16.98;100.00;102067.53;3607697;39;20048;-65
2021/06/05 13:26:13;;;;;;;33.28;24.45;;;;;;;17.12;100.00;102067.06;3588949;39;20290;-65
2021/06/05 13:28:40;;;;;;;30.35;22.98;;;;;;;17.22;100.00;102075.16;3607950;39;20385;-64
2021/06/05 13:31:07;;;;;;;30.38;23.45;;;;;;;17.22;100.00;102066.16;3607634;39;20561;-65
2021/06/05 13:33:38;;;;;;;30.00;23.55;;;;;;;17.21;100.00;102067.16;3607214;39;20280;-65
2021/06/05 13:36:08;;;;;;;32.60;25.80;;;;;;;17.08;100.00;102062.91;3606348;39;20142;-65
2021/06/05 13:38:50;;;;;;;35.15;25.40;;;;;;;17.11;100.00;102062.63;3607224;39;20055;-65
2021/06/05 13:41:16;;;;;;;33.03;24.30;;;;;;;16.92;100.00;102073.59;3605964;39;20048;-65
2021/06/05 13:43:42;;;;;;;36.83;24.55;;;;;;;16.81;100.00;102070.00;3606739;39;20141;-64
2021/06/05 13:46:08;;;;;;;35.45;24.67;;;;;;;16.99;100.00;102066.53;3608024;39;20054;-64
2021/06/05 13:48:35;;;;;;;34.90;22.23;;;;;;;16.97;100.00;102073.97;3606629;39;20108;-64
2021/06/05 13:51:01;;;;;;;38.03;24.00;;;;;;;17.02;100.00;102073.53;3607460;39;20104;-65
2021/06/05 13:53:30;;;;;;;36.00;23.35;;;;;;;17.01;100.00;102080.00;3607507;39;20059;-64
2021/06/05 13:55:59;;;;;;;;;;;;;;;16.98;100.00;102072.97;3607736;39;20451;-64
2021/06/05 13:58:25;;;;;;;35.00;22.00;;;;;;;16.99;100.00;102082.88;3607794;39;19935;-64
2021/06/05 14:00:52;;;;;;;36.85;25.25;;;;;;;16.94;100.00;102087.88;3606161;39;20051;-64
2021/06/05 14:03:19;;;;;;;37.03;26.58;;;;;;;16.95;100.00;102081.44;3607597;39;20132;-65